Time;durP1;ratioP1;P1;durP2;ratioP2;P2;SDS_P1;SDS_P2;PMS_P1;PMS_P2;Temp;Humidity;BMP_temperature;BMP_pressure;BME280_temperature;BME280_humidity;BME280_pressure;Samples;Min_cycle;Max_cycle;Signal;HPM_P1;HPM_P2
2022/06/24 00:00:11;;;;;;;9.15;2.22;;;;;;;;;;522679;28;1433;-85
2022/06/24 00:00:35;;;;;;;10.05;2.30;;;;;;;;;;521542;28;1314;-85
2022/06/24 00:00:51;;;;;;;7.70;2.00;;;;;;;;;;520564;28;1434;-86
2022/06/24 00:01:11;;;;;;;7.63;2.10;;;;;;;;;;521172;28;1403;-85
2022/06/24 00:01:27;;;;;;;9.63;2.20;;;;;;;;;;522402;28;1447;-85
2022/06/24 00:01:53;;;;;;;10.05;2.28;;;;;;;;;;524722;28;1456;-85
2022/06/24 00:02:10;;;;;;;8.25;2.28;;;;;;;;;;520930;28;1416;-85
2022/06/24 00:02:26;;;;;;;9.70;2.30;;;;;;;;;;520842;28;1320;-84
2022/06/24 00:02:47;;;;;;;11.68;2.30;;;;;;;;;;520940;28;1406;-84
2022/06/24 00:03:03;;;;;;;7.68;2.03;;;;;;;;;;522518;28;1584;-85
2022/06/24 00:03:20;;;;;;;9.03;2.13;;;;;;;;;;522560;28;1136;-85
2022/06/24 00:03:35;;;;;;;9.02;2.10;;;;;;;;;;524614;28;1291;-85
2022/06/24 00:03:51;;;;;;;8.45;2.10;;;;;;;;;;527236;28;990;-86
2022/06/24 00:04:07;;;;;;;9.40;2.20;;;;;;;;;;523941;28;1695;-85
2022/06/24 00:04:25;;;;;;;9.00;2.13;;;;;;;;;;522933;28;1511;-86
2022/06/24 00:04:40;;;;;;;9.75;2.28;;;;;;;;;;524525;28;1298;-85
2022/06/24 00:04:57;;;;;;;9.80;2.40;;;;;;;;;;525146;28;1480;-86
2022/06/24 00:05:12;;;;;;;8.68;2.25;;;;;;;;;;523377;28;1572;-85
2022/06/24 00:05:29;;;;;;;7.13;2.00;;;;;;;;;;524242;28;1329;-85
2022/06/24 00:05:48;;;;;;;7.55;1.95;;;;;;;;;;523179;28;1282;-85
2022/06/24 00:06:13;;;;;;;7.55;1.83;;;;;;;;;;524660;28;1656;-84
2022/06/24 00:06:40;;;;;;;6.32;1.85;;;;;;;;;;523613;28;1458;-85
2022/06/24 00:06:58;;;;;;;5.93;1.70;;;;;;;;;;521332;28;1411;-85
2022/06/24 00:07:15;;;;;;;6.97;2.00;;;;;;;;;;524369;28;1420;-85
2022/06/24 00:07:50;;;;;;;8.75;2.10;;;;;;;;;;521766;28;1774;-86
2022/06/24 00:08:06;;;;;;;7.82;1.90;;;;;;;;;;520677;28;2056;-85
2022/06/24 00:08:22;;;;;;;7.22;1.90;;;;;;;;;;521403;28;1287;-86
2022/06/24 00:08:59;;;;;;;7.47;2.03;;;;;;;;;;522174;28;1520;-86
2022/06/24 00:09:15;;;;;;;10.25;2.28;;;;;;;;;;524107;28;1398;-86
2022/06/24 00:09:31;;;;;;;10.18;2.28;;;;;;;;;;525876;28;1965;-86
2022/06/24 00:09:47;;;;;;;7.90;1.90;;;;;;;;;;526341;28;832;-85
2022/06/24 00:10:11;;;;;;;7.35;2.00;;;;;;;;;;523880;28;1503;-85
2022/06/24 00:10:32;;;;;;;11.98;2.17;;;;;;;;;;522651;28;1520;-86
2022/06/24 00:10:47;;;;;;;8.98;2.10;;;;;;;;;;523650;28;813;-85
2022/06/24 00:11:12;;;;;;;7.93;1.95;;;;;;;;;;522502;28;1692;-85
2022/06/24 00:11:28;;;;;;;7.40;1.85;;;;;;;;;;524765;28;1532;-85
2022/06/24 00:11:44;;;;;;;8.00;1.85;;;;;;;;;;524153;28;1374;-86
2022/06/24 00:12:08;;;;;;;8.95;2.10;;;;;;;;;;523682;28;1206;-86
2022/06/24 00:12:25;;;;;;;7.00;2.13;;;;;;;;;;523742;28;1398;-86
2022/06/24 00:12:41;;;;;;;7.18;1.98;;;;;;;;;;524234;28;855;-86
2022/06/24 00:12:56;;;;;;;9.23;2.00;;;;;;;;;;525257;28;1223;-86
2022/06/24 00:13:11;;;;;;;10.70;2.10;;;;;;;;;;526050;28;1441;-86
2022/06/24 00:13:38;;;;;;;9.90;2.20;;;;;;;;;;523322;28;1511;-86
2022/06/24 00:14:08;;;;;;;11.15;2.30;;;;;;;;;;525027;28;1405;-86
2022/06/24 00:14:24;;;;;;;9.88;2.30;;;;;;;;;;522248;28;1298;-86
2022/06/24 00:14:41;;;;;;;8.57;2.17;;;;;;;;;;524557;28;1468;-86
2022/06/24 00:15:04;;;;;;;7.97;2.14;;;;;;;;;;421534;28;10000424;-86
2022/06/24 00:15:28;;;;;;;7.20;2.05;;;;;;;;;;525119;28;1341;-85
2022/06/24 00:15:44;;;;;;;9.98;2.22;;;;;;;;;;528222;27;1684;-86
2022/06/24 00:16:02;;;;;;;8.43;2.20;;;;;;;;;;528958;27;924;-86
2022/06/24 00:16:17;;;;;;;7.00;2.10;;;;;;;;;;527514;28;1277;-86
2022/06/24 00:16:55;;;;;;;8.90;2.17;;;;;;;;;;526203;28;1432;-86
2022/06/24 00:17:12;;;;;;;10.02;2.10;;;;;;;;;;526225;28;1499;-86
2022/06/24 00:17:30;;;;;;;7.85;2.15;;;;;;;;;;524551;28;1347;-85
2022/06/24 00:17:45;;;;;;;6.90;2.20;;;;;;;;;;522688;28;1277;-85
2022/06/24 00:18:18;;;;;;;6.27;1.90;;;;;;;;;;525478;28;1798;-86
2022/06/24 00:18:33;;;;;;;6.43;1.90;;;;;;;;;;522469;28;1392;-85
2022/06/24 00:19:09;;;;;;;7.93;2.00;;;;;;;;;;522383;28;1446;-85
2022/06/24 00:19:25;;;;;;;6.68;2.10;;;;;;;;;;520763;28;1465;-85
2022/06/24 00:19:54;;;;;;;7.22;2.20;;;;;;;;;;523595;28;1579;-85
2022/06/24 00:20:16;;;;;;;7.25;2.00;;;;;;;;;;524567;28;1449;-85
2022/06/24 00:20:44;;;;;;;7.95;2.00;;;;;;;;;;525086;28;1456;-85
2022/06/24 00:21:00;;;;;;;8.65;2.00;;;;;;;;;;524108;28;1369;-85
2022/06/24 00:21:15;;;;;;;8.77;2.10;;;;;;;;;;525180;28;1276;-85
2022/06/24 00:21:30;;;;;;;9.25;2.20;;;;;;;;;;523831;28;1484;-86
2022/06/24 00:22:12;;;;;;;7.40;2.07;;;;;;;;;;524543;28;1640;-85
2022/06/24 00:22:29;;;;;;;9.77;2.35;;;;;;;;;;524981;27;1453;-86
2022/06/24 00:22:48;;;;;;;8.82;2.30;;;;;;;;;;525394;28;1472;-86
2022/06/24 00:23:08;;;;;;;7.80;2.28;;;;;;;;;;526285;28;984;-85
2022/06/24 00:23:23;;;;;;;9.95;2.17;;;;;;;;;;526275;28;946;-85
2022/06/24 00:23:42;;;;;;;12.10;2.30;;;;;;;;;;528530;27;1057;-86
2022/06/24 00:23:58;;;;;;;8.75;2.13;;;;;;;;;;525360;28;1451;-85
2022/06/24 00:24:22;;;;;;;5.97;2.10;;;;;;;;;;526268;28;1435;-85
2022/06/24 00:24:39;;;;;;;6.65;2.17;;;;;;;;;;525263;28;1660;-86
2022/06/24 00:25:09;;;;;;;8.32;2.33;;;;;;;;;;525618;28;1419;-85
2022/06/24 00:25:25;;;;;;;8.25;2.35;;;;;;;;;;525202;28;1528;-86
2022/06/24 00:25:42;;;;;;;11.07;2.58;;;;;;;;;;524616;28;1320;-85
2022/06/24 00:25:58;;;;;;;9.38;2.33;;;;;;;;;;528795;28;1430;-85
2022/06/24 00:26:14;;;;;;;6.88;2.03;;;;;;;;;;526205;28;1349;-85
2022/06/24 00:26:42;;;;;;;9.13;2.20;;;;;;;;;;526996;28;1400;-85
2022/06/24 00:26:57;;;;;;;8.95;2.33;;;;;;;;;;526279;28;860;-86
2022/06/24 00:27:24;;;;;;;8.45;2.10;;;;;;;;;;525406;28;1242;-85
2022/06/24 00:27:41;;;;;;;8.48;2.17;;;;;;;;;;522135;28;888;-85
2022/06/24 00:28:03;;;;;;;9.50;2.33;;;;;;;;;;523514;28;1496;-86
2022/06/24 00:28:24;;;;;;;6.90;1.92;;;;;;;;;;524268;28;1337;-86
2022/06/24 00:28:39;;;;;;;5.32;1.70;;;;;;;;;;523308;28;1315;-85
2022/06/24 00:29:00;;;;;;;6.27;2.00;;;;;;;;;;521733;28;1381;-84
2022/06/24 00:29:16;;;;;;;7.30;2.20;;;;;;;;;;523430;28;1353;-85
2022/06/24 00:29:33;;;;;;;8.27;2.10;;;;;;;;;;523364;28;2036;-85
2022/06/24 00:29:51;;;;;;;8.40;2.22;;;;;;;;;;525614;28;1290;-85
2022/06/24 00:30:13;;;;;;;7.57;2.20;;;;;;;;;;522599;28;1334;-86
2022/06/24 00:30:34;;;;;;;5.72;2.10;;;;;;;;;;521943;28;1304;-85
2022/06/24 00:30:51;;;;;;;6.45;2.00;;;;;;;;;;522839;28;1493;-85
2022/06/24 00:31:07;;;;;;;7.10;2.30;;;;;;;;;;524577;28;1528;-86
2022/06/24 00:31:22;;;;;;;8.03;2.40;;;;;;;;;;525779;28;1608;-86
2022/06/24 00:31:38;;;;;;;7.70;2.10;;;;;;;;;;524024;28;1690;-85
2022/06/24 00:32:32;;;;;;;8.57;1.90;;;;;;;;;;524132;28;1290;-86
2022/06/24 00:32:48;;;;;;;6.95;2.03;;;;;;;;;;516621;28;1333;-85
2022/06/24 00:33:21;;;;;;;7.07;2.07;;;;;;;;;;517787;28;1294;-85
2022/06/24 00:33:37;;;;;;;7.45;2.10;;;;;;;;;;525761;28;1499;-86
2022/06/24 00:33:52;;;;;;;7.25;2.00;;;;;;;;;;526272;28;1091;-85
2022/06/24 00:34:23;;;;;;;6.60;1.92;;;;;;;;;;524796;28;1653;-85
2022/06/24 00:34:40;;;;;;;8.20;2.13;;;;;;;;;;522934;28;1431;-85
2022/06/24 00:35:04;;;;;;;8.15;1.90;;;;;;;;;;523873;28;1326;-85
2022/06/24 00:35:20;;;;;;;7.97;1.90;;;;;;;;;;522147;28;1339;-85
2022/06/24 00:35:38;;;;;;;6.60;1.90;;;;;;;;;;520606;28;959;-85
2022/06/24 00:35:56;;;;;;;7.53;1.80;;;;;;;;;;520140;28;1525;-85
2022/06/24 00:36:12;;;;;;;6.68;2.00;;;;;;;;;;519990;28;1357;-85
2022/06/24 00:36:28;;;;;;;6.90;2.20;;;;;;;;;;523476;28;1487;-85
2022/06/24 00:36:43;;;;;;;7.65;2.25;;;;;;;;;;524056;28;1824;-85
2022/06/24 00:37:25;;;;;;;6.07;2.13;;;;;;;;;;523319;28;1528;-85
2022/06/24 00:37:43;;;;;;;7.07;1.80;;;;;;;;;;524114;28;1477;-85
2022/06/24 00:37:58;;;;;;;7.53;2.00;;;;;;;;;;526334;28;1168;-84
2022/06/24 00:38:28;;;;;;;8.93;2.05;;;;;;;;;;524634;28;1668;-85
2022/06/24 00:38:50;;;;;;;6.85;2.10;;;;;;;;;;524195;28;1361;-85
2022/06/24 00:39:06;;;;;;;6.72;2.00;;;;;;;;;;525138;28;1413;-85
2022/06/24 00:39:36;;;;;;;7.30;2.00;;;;;;;;;;521595;28;1299;-85
2022/06/24 00:39:56;;;;;;;7.20;2.00;;;;;;;;;;518213;28;1550;-86
2022/06/24 00:40:11;;;;;;;7.13;2.10;;;;;;;;;;518455;28;1605;-86
2022/06/24 00:40:29;;;;;;;8.20;2.00;;;;;;;;;;523910;28;1224;-84
2022/06/24 00:40:47;;;;;;;7.57;1.80;;;;;;;;;;523784;28;1392;-85
2022/06/24 00:41:08;;;;;;;7.75;1.90;;;;;;;;;;525293;28;1408;-85
2022/06/24 00:41:25;;;;;;;7.50;1.90;;;;;;;;;;522213;28;1630;-84
2022/06/24 00:41:41;;;;;;;7.40;2.05;;;;;;;;;;524067;28;1730;-86
2022/06/24 00:41:57;;;;;;;7.20;2.10;;;;;;;;;;522612;28;1484;-86
2022/06/24 00:42:14;;;;;;;7.20;2.13;;;;;;;;;;521825;28;1363;-85
2022/06/24 00:42:31;;;;;;;8.63;2.17;;;;;;;;;;519829;28;1357;-85
2022/06/24 00:42:47;;;;;;;9.15;1.88;;;;;;;;;;521451;28;1474;-85
2022/06/24 00:43:03;;;;;;;7.20;1.83;;;;;;;;;;522627;28;1747;-85
2022/06/24 00:43:25;;;;;;;6.57;1.93;;;;;;;;;;523533;28;1265;-85
2022/06/24 00:43:42;;;;;;;6.13;1.75;;;;;;;;;;522325;28;1667;-86
2022/06/24 00:44:01;;;;;;;9.23;2.00;;;;;;;;;;522154;28;1515;-85
2022/06/24 00:44:19;;;;;;;7.95;1.80;;;;;;;;;;521595;28;1452;-86
2022/06/24 00:44:46;;;;;;;7.10;1.65;;;;;;;;;;519797;28;1442;-85
2022/06/24 00:45:26;;;;;;;7.82;1.85;;;;;;;;;;519353;28;1580;-85
2022/06/24 00:45:46;;;;;;;8.82;2.28;;;;;;;;;;522189;28;1352;-86
2022/06/24 00:46:24;;;;;;;8.70;1.95;;;;;;;;;;520553;28;1366;-85
2022/06/24 00:46:43;;;;;;;5.28;1.80;;;;;;;;;;523837;28;1282;-86
2022/06/24 00:47:00;;;;;;;7.00;2.03;;;;;;;;;;526183;28;1332;-84
2022/06/24 00:47:17;;;;;;;6.97;1.85;;;;;;;;;;525448;28;1395;-85
2022/06/24 00:47:35;;;;;;;5.97;1.90;;;;;;;;;;523437;28;1379;-85
2022/06/24 00:47:51;;;;;;;7.43;2.10;;;;;;;;;;523338;28;1591;-85
2022/06/24 00:48:14;;;;;;;6.72;1.88;;;;;;;;;;522869;28;1382;-84
2022/06/24 00:48:33;;;;;;;5.50;1.70;;;;;;;;;;521930;28;1416;-85
2022/06/24 00:48:50;;;;;;;5.35;1.70;;;;;;;;;;522536;28;1480;-85
2022/06/24 00:49:07;;;;;;;4.55;1.65;;;;;;;;;;524510;28;1395;-85
2022/06/24 00:49:27;;;;;;;6.50;1.90;;;;;;;;;;525980;28;1930;-85
2022/06/24 00:49:45;;;;;;;8.52;1.88;;;;;;;;;;526520;28;1375;-85
2022/06/24 00:50:06;;;;;;;5.65;1.77;;;;;;;;;;524056;28;1395;-85
2022/06/24 00:50:27;;;;;;;5.35;1.50;;;;;;;;;;522354;28;1249;-86
2022/06/24 00:50:46;;;;;;;5.65;1.63;;;;;;;;;;521048;28;1699;-85
2022/06/24 00:51:01;;;;;;;6.85;1.65;;;;;;;;;;519670;28;1480;-85
2022/06/24 00:51:20;;;;;;;8.23;1.90;;;;;;;;;;520885;28;1449;-85
2022/06/24 00:51:37;;;;;;;7.75;1.92;;;;;;;;;;524041;28;1330;-85
2022/06/24 00:51:53;;;;;;;6.95;1.60;;;;;;;;;;522492;28;1915;-86
2022/06/24 00:52:10;;;;;;;5.45;1.50;;;;;;;;;;521705;28;1367;-85
2022/06/24 00:52:26;;;;;;;6.35;1.70;;;;;;;;;;522963;28;1567;-85
2022/06/24 00:52:44;;;;;;;6.88;1.63;;;;;;;;;;524357;28;1252;-86
2022/06/24 00:53:00;;;;;;;5.38;1.50;;;;;;;;;;523534;28;1538;-85
2022/06/24 00:53:16;;;;;;;5.72;1.60;;;;;;;;;;524178;28;1239;-85
2022/06/24 00:53:39;;;;;;;5.87;1.67;;;;;;;;;;524104;28;1164;-85
2022/06/24 00:53:55;;;;;;;8.00;1.88;;;;;;;;;;523949;28;904;-84
2022/06/24 00:54:13;;;;;;;8.20;1.73;;;;;;;;;;524009;28;1333;-85
2022/06/24 00:54:28;;;;;;;5.72;1.70;;;;;;;;;;523973;28;1116;-85
2022/06/24 00:54:45;;;;;;;6.43;1.60;;;;;;;;;;524181;28;1143;-85
2022/06/24 00:55:00;;;;;;;7.88;1.60;;;;;;;;;;524248;28;1251;-85
2022/06/24 00:55:18;;;;;;;5.13;1.50;;;;;;;;;;523817;28;1665;-86
2022/06/24 00:55:37;;;;;;;5.88;1.50;;;;;;;;;;524128;28;1429;-86
2022/06/24 00:55:53;;;;;;;7.00;1.75;;;;;;;;;;523484;28;1241;-86
2022/06/24 00:56:11;;;;;;;7.38;1.90;;;;;;;;;;523698;28;1444;-85
2022/06/24 00:56:27;;;;;;;6.40;1.70;;;;;;;;;;524250;28;1283;-86
2022/06/24 00:56:45;;;;;;;6.95;1.77;;;;;;;;;;524855;28;1265;-85
2022/06/24 00:57:00;;;;;;;7.25;1.80;;;;;;;;;;525960;28;1579;-86
2022/06/24 00:57:17;;;;;;;6.45;1.70;;;;;;;;;;522431;28;1300;-85
2022/06/24 00:57:36;;;;;;;5.22;1.50;;;;;;;;;;525250;28;1375;-86
2022/06/24 00:57:51;;;;;;;6.80;1.42;;;;;;;;;;526117;28;1352;-86
2022/06/24 00:58:13;;;;;;;6.70;1.73;;;;;;;;;;525877;28;781;-85
2022/06/24 00:58:28;;;;;;;7.97;2.10;;;;;;;;;;524053;28;1528;-85
2022/06/24 00:58:55;;;;;;;7.00;1.98;;;;;;;;;;522173;28;1476;-85
2022/06/24 00:59:10;;;;;;;6.82;1.80;;;;;;;;;;521745;28;1486;-85
2022/06/24 00:59:26;;;;;;;6.82;1.80;;;;;;;;;;522081;28;1390;-86
2022/06/24 00:59:42;;;;;;;6.90;1.90;;;;;;;;;;521913;28;781;-86
2022/06/24 00:59:58;;;;;;;7.85;1.95;;;;;;;;;;521102;28;1424;-86
2022/06/24 01:00:15;;;;;;;8.18;2.00;;;;;;;;;;518701;28;1375;-86
2022/06/24 01:00:34;;;;;;;7.38;1.92;;;;;;;;;;522880;28;1706;-86
2022/06/24 01:00:49;;;;;;;9.10;2.20;;;;;;;;;;519946;28;1548;-85
2022/06/24 01:01:05;;;;;;;9.90;2.15;;;;;;;;;;521750;28;848;-86
2022/06/24 01:01:32;;;;;;;8.47;1.93;;;;;;;;;;523363;28;1538;-85
2022/06/24 01:01:49;;;;;;;6.60;1.88;;;;;;;;;;519665;28;1498;-85
2022/06/24 01:02:07;;;;;;;6.78;1.80;;;;;;;;;;522298;28;1450;-85
2022/06/24 01:02:23;;;;;;;6.57;1.92;;;;;;;;;;523793;28;1322;-85
2022/06/24 01:02:39;;;;;;;6.53;1.80;;;;;;;;;;523996;28;1348;-85
2022/06/24 01:03:02;;;;;;;6.40;1.67;;;;;;;;;;525206;28;1483;-85
2022/06/24 01:03:18;;;;;;;4.65;1.60;;;;;;;;;;523313;28;1611;-85
2022/06/24 01:03:39;;;;;;;5.47;1.70;;;;;;;;;;521825;28;1393;-85
2022/06/24 01:03:59;;;;;;;6.53;1.70;;;;;;;;;;522973;28;1320;-85
2022/06/24 01:04:14;;;;;;;5.65;1.65;;;;;;;;;;524958;28;1484;-85
2022/06/24 01:04:32;;;;;;;6.20;1.70;;;;;;;;;;524616;28;1496;-85
2022/06/24 01:04:47;;;;;;;6.32;1.60;;;;;;;;;;522858;28;1279;-85
2022/06/24 01:05:07;;;;;;;5.63;1.40;;;;;;;;;;523856;28;1316;-85
2022/06/24 01:05:22;;;;;;;5.72;1.67;;;;;;;;;;522711;28;1688;-85
2022/06/24 01:05:38;;;;;;;6.15;1.70;;;;;;;;;;521341;28;1544;-84
2022/06/24 01:05:53;;;;;;;4.87;1.40;;;;;;;;;;520939;28;1627;-85
2022/06/24 01:06:09;;;;;;;5.43;1.60;;;;;;;;;;522913;28;1326;-85
2022/06/24 01:06:25;;;;;;;5.88;1.60;;;;;;;;;;522703;28;1320;-85
2022/06/24 01:06:43;;;;;;;5.55;1.60;;;;;;;;;;524101;28;1278;-85
2022/06/24 01:06:58;;;;;;;5.53;1.70;;;;;;;;;;526054;28;1440;-85
2022/06/24 01:07:14;;;;;;;5.43;1.77;;;;;;;;;;527856;28;974;-85
2022/06/24 01:07:29;;;;;;;6.35;1.80;;;;;;;;;;527132;28;1591;-85
2022/06/24 01:07:45;;;;;;;5.20;1.57;;;;;;;;;;528341;28;1049;-85
2022/06/24 01:08:11;;;;;;;5.35;1.63;;;;;;;;;;528560;27;1300;-85
2022/06/24 01:08:27;;;;;;;9.23;1.80;;;;;;;;;;528396;28;966;-85
2022/06/24 01:08:43;;;;;;;6.90;1.60;;;;;;;;;;528209;28;1257;-86
2022/06/24 01:08:58;;;;;;;5.88;1.60;;;;;;;;;;529371;27;1407;-85
2022/06/24 01:09:16;;;;;;;8.37;1.80;;;;;;;;;;527334;28;1475;-85
2022/06/24 01:09:31;;;;;;;8.38;1.83;;;;;;;;;;528183;27;1874;-85
2022/06/24 01:09:46;;;;;;;5.87;1.70;;;;;;;;;;527415;28;1496;-85
2022/06/24 01:10:02;;;;;;;4.70;1.60;;;;;;;;;;526305;28;1530;-85
2022/06/24 01:10:18;;;;;;;5.18;1.80;;;;;;;;;;523778;28;1358;-85
2022/06/24 01:10:34;;;;;;;5.72;1.90;;;;;;;;;;524584;28;1258;-86
2022/06/24 01:10:50;;;;;;;5.90;1.90;;;;;;;;;;523744;28;1480;-85
2022/06/24 01:11:05;;;;;;;6.40;1.85;;;;;;;;;;521774;28;1268;-85
2022/06/24 01:11:43;;;;;;;6.20;1.60;;;;;;;;;;519881;28;1278;-85
2022/06/24 01:11:59;;;;;;;6.47;1.50;;;;;;;;;;516905;28;1611;-85
2022/06/24 01:12:15;;;;;;;5.20;1.40;;;;;;;;;;519781;28;1547;-85
2022/06/24 01:12:31;;;;;;;4.67;1.57;;;;;;;;;;521862;28;1269;-85
2022/06/24 01:12:47;;;;;;;4.72;1.60;;;;;;;;;;523331;28;1465;-86
2022/06/24 01:13:07;;;;;;;5.05;1.50;;;;;;;;;;525185;28;1768;-86
2022/06/24 01:13:23;;;;;;;6.03;1.50;;;;;;;;;;524495;28;1586;-86
2022/06/24 01:13:38;;;;;;;6.82;1.60;;;;;;;;;;526046;28;1241;-85
2022/06/24 01:13:54;;;;;;;6.67;1.70;;;;;;;;;;523775;28;1504;-85
2022/06/24 01:14:11;;;;;;;5.10;1.60;;;;;;;;;;525792;28;1322;-85
2022/06/24 01:14:26;;;;;;;4.57;1.52;;;;;;;;;;526748;28;1356;-86
2022/06/24 01:14:42;;;;;;;4.50;1.53;;;;;;;;;;523700;28;1442;-85
2022/06/24 01:14:57;;;;;;;4.70;1.52;;;;;;;;;;523443;28;1387;-85
2022/06/24 01:15:13;;;;;;;4.47;1.40;;;;;;;;;;521996;28;1497;-86
2022/06/24 01:15:28;;;;;;;5.28;1.50;;;;;;;;;;519897;28;1232;-85
2022/06/24 01:15:44;;;;;;;6.43;1.57;;;;;;;;;;521151;28;1585;-86
2022/06/24 01:15:59;;;;;;;6.22;1.70;;;;;;;;;;520273;28;1351;-86
2022/06/24 01:16:15;;;;;;;5.80;1.57;;;;;;;;;;519956;28;1187;-86
2022/06/24 01:16:30;;;;;;;5.25;1.30;;;;;;;;;;520428;28;899;-86
2022/06/24 01:16:46;;;;;;;4.23;1.47;;;;;;;;;;522517;28;1261;-85
2022/06/24 01:17:02;;;;;;;4.53;1.60;;;;;;;;;;522079;28;1168;-85
2022/06/24 01:17:17;;;;;;;5.65;1.60;;;;;;;;;;522114;28;1195;-85
2022/06/24 01:17:33;;;;;;;5.45;1.63;;;;;;;;;;522144;28;1282;-85
2022/06/24 01:17:49;;;;;;;4.65;1.63;;;;;;;;;;519871;28;1359;-85
2022/06/24 01:18:04;;;;;;;4.97;1.73;;;;;;;;;;523147;28;805;-86
2022/06/24 01:18:20;;;;;;;6.35;1.70;;;;;;;;;;525185;28;1151;-85
2022/06/24 01:18:36;;;;;;;6.27;1.60;;;;;;;;;;519809;28;1384;-86
2022/06/24 01:18:56;;;;;;;6.90;1.60;;;;;;;;;;521567;28;1375;-85
2022/06/24 01:19:14;;;;;;;5.90;1.50;;;;;;;;;;523163;28;1504;-86
2022/06/24 01:19:30;;;;;;;5.55;1.63;;;;;;;;;;520191;28;1353;-85
2022/06/24 01:19:46;;;;;;;6.90;1.67;;;;;;;;;;520966;28;1289;-86
2022/06/24 01:20:01;;;;;;;6.43;1.60;;;;;;;;;;517771;28;1373;-85
2022/06/24 01:20:17;;;;;;;4.40;1.42;;;;;;;;;;521128;28;1377;-85
2022/06/24 01:20:33;;;;;;;4.93;1.42;;;;;;;;;;520164;28;1532;-87
2022/06/24 01:20:48;;;;;;;5.57;1.50;;;;;;;;;;517857;28;1433;-86
2022/06/24 01:21:04;;;;;;;4.97;1.48;;;;;;;;;;517621;28;1490;-85
2022/06/24 01:21:47;;;;;;;5.28;1.50;;;;;;;;;;520490;28;1473;-85
2022/06/24 01:22:02;;;;;;;4.18;1.40;;;;;;;;;;517715;28;1263;-85
2022/06/24 01:22:26;;;;;;;3.58;1.30;;;;;;;;;;521125;28;1240;-85
2022/06/24 01:22:42;;;;;;;3.67;1.33;;;;;;;;;;521613;28;1259;-85
2022/06/24 01:22:57;;;;;;;3.92;1.30;;;;;;;;;;522756;28;1369;-85
2022/06/24 01:23:21;;;;;;;5.35;1.40;;;;;;;;;;521471;28;1016;-85
2022/06/24 01:23:36;;;;;;;5.63;1.50;;;;;;;;;;521982;28;1571;-85
2022/06/24 01:24:04;;;;;;;4.78;1.30;;;;;;;;;;521896;28;1462;-85
2022/06/24 01:24:22;;;;;;;4.50;1.50;;;;;;;;;;523492;28;951;-86
2022/06/24 01:24:37;;;;;;;4.40;1.60;;;;;;;;;;525805;28;1444;-84
2022/06/24 01:24:54;;;;;;;5.30;1.40;;;;;;;;;;523267;28;1179;-85
2022/06/24 01:25:10;;;;;;;5.30;1.30;;;;;;;;;;523471;28;1261;-85
2022/06/24 01:25:28;;;;;;;4.30;1.30;;;;;;;;;;524324;28;1376;-85
2022/06/24 01:25:43;;;;;;;5.18;1.38;;;;;;;;;;523033;28;1358;-84
2022/06/24 01:25:59;;;;;;;5.95;1.25;;;;;;;;;;523290;28;1203;-84
2022/06/24 01:26:14;;;;;;;6.50;1.40;;;;;;;;;;521141;28;1363;-85
2022/06/24 01:26:30;;;;;;;6.30;1.52;;;;;;;;;;521572;28;1615;-84
2022/06/24 01:26:51;;;;;;;5.53;1.53;;;;;;;;;;521888;28;1477;-85
2022/06/24 01:27:07;;;;;;;4.93;1.40;;;;;;;;;;521648;28;1550;-85
2022/06/24 01:27:23;;;;;;;4.20;1.40;;;;;;;;;;518239;28;1404;-84
2022/06/24 01:27:38;;;;;;;4.50;1.60;;;;;;;;;;520304;28;1486;-84
2022/06/24 01:27:54;;;;;;;4.63;1.50;;;;;;;;;;517778;28;1336;-84
2022/06/24 01:28:09;;;;;;;4.60;1.30;;;;;;;;;;516514;28;1371;-84
2022/06/24 01:28:25;;;;;;;5.63;1.27;;;;;;;;;;519625;28;1010;-84
2022/06/24 01:28:40;;;;;;;5.40;1.20;;;;;;;;;;517890;28;1263;-84
2022/06/24 01:28:56;;;;;;;4.73;1.20;;;;;;;;;;519101;28;1588;-84
2022/06/24 01:29:12;;;;;;;4.65;1.17;;;;;;;;;;518698;28;1331;-85
2022/06/24 01:29:28;;;;;;;4.68;1.10;;;;;;;;;;520507;28;1922;-85
2022/06/24 01:29:43;;;;;;;6.13;1.30;;;;;;;;;;522221;28;1266;-83
2022/06/24 01:29:58;;;;;;;5.27;1.30;;;;;;;;;;522694;28;1275;-84
2022/06/24 01:30:14;;;;;;;4.35;1.27;;;;;;;;;;524357;28;907;-84
2022/06/24 01:30:29;;;;;;;5.10;1.33;;;;;;;;;;522942;28;1306;-84
2022/06/24 01:30:45;;;;;;;3.85;1.33;;;;;;;;;;522686;28;1464;-84
2022/06/24 01:31:00;;;;;;;3.93;1.30;;;;;;;;;;520881;28;1492;-84
2022/06/24 01:31:15;;;;;;;4.33;1.40;;;;;;;;;;522211;28;1533;-84
2022/06/24 01:31:31;;;;;;;4.05;1.33;;;;;;;;;;524315;28;1504;-85
2022/06/24 01:31:50;;;;;;;4.80;1.20;;;;;;;;;;522606;28;1407;-85
2022/06/24 01:32:06;;;;;;;4.75;1.20;;;;;;;;;;523896;28;1289;-85
2022/06/24 01:32:21;;;;;;;2.95;1.20;;;;;;;;;;524099;28;1261;-85
2022/06/24 01:32:37;;;;;;;4.67;1.50;;;;;;;;;;522291;28;1502;-84
2022/06/24 01:32:53;;;;;;;5.55;1.48;;;;;;;;;;521766;28;1704;-85
2022/06/24 01:33:08;;;;;;;5.55;1.20;;;;;;;;;;521822;28;1563;-85
2022/06/24 01:33:23;;;;;;;6.63;1.40;;;;;;;;;;523822;28;1372;-84
2022/06/24 01:33:40;;;;;;;6.03;1.40;;;;;;;;;;524830;28;1222;-85
2022/06/24 01:33:57;;;;;;;4.82;1.30;;;;;;;;;;524255;28;1501;-84
2022/06/24 01:34:12;;;;;;;4.75;1.30;;;;;;;;;;525028;28;1365;-84
2022/06/24 01:34:27;;;;;;;5.47;1.33;;;;;;;;;;525824;28;915;-84
2022/06/24 01:34:43;;;;;;;5.70;1.40;;;;;;;;;;523991;28;1286;-84
2022/06/24 01:34:58;;;;;;;4.60;1.20;;;;;;;;;;522432;28;1563;-84
2022/06/24 01:35:14;;;;;;;3.60;1.20;;;;;;;;;;520686;28;1645;-85
2022/06/24 01:35:29;;;;;;;3.67;1.20;;;;;;;;;;521944;28;1652;-85
2022/06/24 01:35:44;;;;;;;4.43;1.20;;;;;;;;;;522703;28;1440;-85
2022/06/24 01:36:00;;;;;;;3.83;1.20;;;;;;;;;;522068;28;1160;-85
2022/06/24 01:36:15;;;;;;;3.88;1.30;;;;;;;;;;522164;28;1286;-84
2022/06/24 01:36:31;;;;;;;5.00;1.40;;;;;;;;;;522271;28;1379;-84
2022/06/24 01:36:47;;;;;;;4.68;1.30;;;;;;;;;;522122;28;962;-85
2022/06/24 01:37:02;;;;;;;4.32;1.27;;;;;;;;;;523085;28;1441;-85
2022/06/24 01:37:18;;;;;;;5.70;1.23;;;;;;;;;;522195;28;1401;-85
2022/06/24 01:37:33;;;;;;;4.95;1.05;;;;;;;;;;520357;28;1343;-85
2022/06/24 01:37:49;;;;;;;4.97;1.20;;;;;;;;;;522049;28;1234;-85
2022/06/24 01:38:05;;;;;;;6.20;1.50;;;;;;;;;;522594;28;1194;-84
2022/06/24 01:38:20;;;;;;;5.20;1.30;;;;;;;;;;522474;28;1305;-85
2022/06/24 01:38:35;;;;;;;3.78;1.20;;;;;;;;;;521873;28;1369;-85
2022/06/24 01:38:51;;;;;;;4.43;1.20;;;;;;;;;;521910;28;1319;-85
2022/06/24 01:39:07;;;;;;;4.40;1.10;;;;;;;;;;521973;28;1552;-85
2022/06/24 01:39:22;;;;;;;3.35;1.20;;;;;;;;;;521675;28;1163;-85
2022/06/24 01:39:38;;;;;;;3.43;1.30;;;;;;;;;;519656;28;1294;-85
2022/06/24 01:39:54;;;;;;;3.95;1.10;;;;;;;;;;519555;28;1570;-84
2022/06/24 01:40:10;;;;;;;4.82;1.27;;;;;;;;;;520265;28;1386;-84
2022/06/24 01:40:26;;;;;;;4.68;1.40;;;;;;;;;;522673;28;1432;-84
2022/06/24 01:40:41;;;;;;;5.10;1.40;;;;;;;;;;524275;28;962;-85
2022/06/24 01:40:56;;;;;;;5.25;1.20;;;;;;;;;;524098;28;1572;-85
2022/06/24 01:41:12;;;;;;;4.87;1.20;;;;;;;;;;524586;28;1250;-85
2022/06/24 01:41:27;;;;;;;4.18;1.30;;;;;;;;;;526196;28;907;-85
2022/06/24 01:41:43;;;;;;;3.97;1.13;;;;;;;;;;523925;28;1339;-84
2022/06/24 01:41:58;;;;;;;4.63;1.13;;;;;;;;;;523954;28;1140;-84
2022/06/24 01:42:13;;;;;;;4.63;1.20;;;;;;;;;;523948;28;1305;-84
2022/06/24 01:42:29;;;;;;;3.80;1.10;;;;;;;;;;523918;28;797;-84
2022/06/24 01:42:44;;;;;;;3.75;1.20;;;;;;;;;;523972;28;860;-84
2022/06/24 01:43:01;;;;;;;4.10;1.37;;;;;;;;;;524789;28;1546;-84
2022/06/24 01:43:17;;;;;;;4.13;1.30;;;;;;;;;;526495;28;1336;-84
2022/06/24 01:43:32;;;;;;;3.40;1.20;;;;;;;;;;524449;28;1560;-85
2022/06/24 01:43:47;;;;;;;3.55;1.20;;;;;;;;;;524189;28;1192;-84
2022/06/24 01:44:04;;;;;;;5.30;1.30;;;;;;;;;;523338;28;1552;-85
2022/06/24 01:44:20;;;;;;;4.65;1.30;;;;;;;;;;523758;28;1507;-84
2022/06/24 01:44:35;;;;;;;3.40;1.20;;;;;;;;;;525026;28;1524;-84
2022/06/24 01:44:51;;;;;;;3.77;1.27;;;;;;;;;;523363;28;1278;-85
2022/06/24 01:45:07;;;;;;;4.80;1.20;;;;;;;;;;520096;28;1298;-85
2022/06/24 01:45:22;;;;;;;4.95;1.27;;;;;;;;;;520943;28;1162;-85
2022/06/24 01:45:37;;;;;;;4.63;1.40;;;;;;;;;;523993;28;1416;-85
2022/06/24 01:45:53;;;;;;;4.13;1.30;;;;;;;;;;523236;28;1175;-85
2022/06/24 01:46:11;;;;;;;3.73;1.30;;;;;;;;;;522607;28;1726;-85
2022/06/24 01:46:26;;;;;;;3.70;1.20;;;;;;;;;;522405;28;1552;-84
2022/06/24 01:46:42;;;;;;;3.67;1.15;;;;;;;;;;524713;28;963;-85
2022/06/24 01:46:57;;;;;;;4.17;1.30;;;;;;;;;;524361;28;1695;-85
2022/06/24 01:47:13;;;;;;;6.32;1.30;;;;;;;;;;525108;28;1396;-85
2022/06/24 01:47:28;;;;;;;6.07;1.20;;;;;;;;;;522555;28;1434;-84
2022/06/24 01:47:44;;;;;;;5.22;1.20;;;;;;;;;;522749;28;1400;-85
2022/06/24 01:47:59;;;;;;;5.43;1.30;;;;;;;;;;524074;28;1372;-84
2022/06/24 01:48:14;;;;;;;4.73;1.43;;;;;;;;;;525596;28;1436;-85
2022/06/24 01:48:30;;;;;;;5.18;1.50;;;;;;;;;;524735;28;1179;-85
2022/06/24 01:48:45;;;;;;;5.07;1.40;;;;;;;;;;521637;28;1825;-85
2022/06/24 01:49:01;;;;;;;3.95;1.30;;;;;;;;;;521937;28;1082;-84
2022/06/24 01:49:16;;;;;;;4.00;1.50;;;;;;;;;;522094;28;1508;-84
2022/06/24 01:49:32;;;;;;;4.05;1.40;;;;;;;;;;522285;28;1914;-84
2022/06/24 01:49:47;;;;;;;3.77;1.30;;;;;;;;;;521931;28;860;-84
2022/06/24 01:50:03;;;;;;;4.32;1.40;;;;;;;;;;521704;28;1480;-84
2022/06/24 01:50:18;;;;;;;4.10;1.30;;;;;;;;;;520046;28;1557;-84
2022/06/24 01:50:34;;;;;;;3.45;1.20;;;;;;;;;;521304;28;1434;-84
2022/06/24 01:50:49;;;;;;;3.93;1.10;;;;;;;;;;523643;28;1492;-85
2022/06/24 01:51:08;;;;;;;5.25;1.15;;;;;;;;;;519961;28;1513;-83
2022/06/24 01:51:25;;;;;;;4.82;1.20;;;;;;;;;;521664;28;1295;-85
2022/06/24 01:51:44;;;;;;;4.00;1.20;;;;;;;;;;520434;28;1424;-84